Jamestown, OH

2:50 AM EST on February 01, 2015 (GMT -0500)
Wright-Patterson Air Force Base | Change Station
CLOSE
Current Station
Airport
Location: Wright-Patt AFB,
Elevation: 823 ft
Nearby Weather Stations
Active Advisory: Winter Weather Advisory

Elev 823 ft 39.83 °N, 84.05 °W | Updated 52 minutes ago

Overcast
Overcast
32 °F
Feels Like 32 °F
N
2
Wind Variable Wind from South

Today
High -- | Low -- °F
--% Chance of Precip.
Yesterday
High -- | Low -- °F
Precip. -- in
7:42 AM 5:54 PM
Waxing Gibbous, 94% visible
Pressure 30.22 in
Visibility 6.0 miles
Clouds Mostly Cloudy 1200 ft
Mostly Cloudy 2200 ft
Dew Point 31 °F
Humidity 95%
Rainfall 0.02 in
Snow Depth Not available.
UV 0 out of 12
Pollen .10 out of 12
Air Quality Not available.
Flu Activity Not available.
METAR KFFO 010658Z 17002KT 6SM -RA BKN012 BKN022 00/00 A3018 RMK AO2A SLP231 P0002 T00031004

More Conditions Fewer Conditions

Pressure 30.22 in
Visibility 6.0 miles
Clouds Mostly Cloudy 1200 ft
Mostly Cloudy 2200 ft
Dew Point 31 °F
Humidity 95%
Rainfall 0.02 in
Snow Depth Not available.
UV 0 out of 12
Pollen .10 out of 12
Air Quality Not available.
Flu Activity Not available.
METAR KFFO 010658Z 17002KT 6SM -RA BKN012 BKN022 00/00 A3018 RMK AO2A SLP231 P0002 T00031004

More Conditions Fewer Conditions

10-Day Weather Forecast

Almanac

Astronomy

Feb. 01, 2015 Rise Set
Actual Time
Civil Twilight
Nautical Twilight
Astronomical Twilight
Moon
Length of Visible Light
Length of Day
Tomorrow will be .
, % of the Moon is Illuminated

Today's Extremes

State Highs State Lows

Community

WunderPhotos

Upload Photos

1,792,327 photos uploaded!

WunderBlogs® & News

Nearby

Air Quality

  Air Quality AQ Index Pollutant
Not available.

Snow Depth

Station Depth Elevation

Earthquake Activity

City Distance Mag. Time & Date
Minimum magnitude displayed is 2.5.

Coastal Water Temperatures

Place Temperature

Nearby Weather Stations